createdAt,value
2022-08-16T00:01:33.708Z,100.00
2022-08-16T00:04:05.356Z,100.00
2022-08-16T00:06:34.059Z,100.00
2022-08-16T00:09:06.515Z,100.00
2022-08-16T00:11:35.592Z,100.00
2022-08-16T00:14:08.620Z,100.00
2022-08-16T00:17:01.502Z,100.00
2022-08-16T00:19:40.980Z,100.00
2022-08-16T00:22:13.634Z,100.00
2022-08-16T00:24:46.625Z,100.00
2022-08-16T00:27:17.419Z,100.00
2022-08-16T00:29:46.225Z,100.00
2022-08-16T00:32:18.276Z,100.00
2022-08-16T00:34:52.894Z,100.00
2022-08-16T00:37:58.498Z,100.00
2022-08-16T00:40:34.235Z,100.00
2022-08-16T00:43:12.208Z,100.00
2022-08-16T00:46:22.427Z,100.00
2022-08-16T00:49:02.548Z,100.00
2022-08-16T00:51:31.466Z,100.00
2022-08-16T00:54:00.327Z,100.00
2022-08-16T00:56:56.916Z,100.00
2022-08-16T00:59:26.665Z,100.00
2022-08-16T01:01:57.103Z,100.00
2022-08-16T01:04:30.910Z,100.00
2022-08-16T01:07:04.878Z,100.00
2022-08-16T01:09:42.754Z,100.00
2022-08-16T01:12:26.802Z,100.00
2022-08-16T01:15:00.492Z,100.00
2022-08-16T01:17:36.741Z,100.00
2022-08-16T01:20:24.454Z,100.00
2022-08-16T01:23:58.479Z,100.00
2022-08-16T01:26:35.055Z,100.00
2022-08-16T01:29:09.787Z,100.00
2022-08-16T01:31:42.748Z,100.00
2022-08-16T01:34:22.801Z,100.00
2022-08-16T01:37:04.323Z,100.00
2022-08-16T01:39:35.195Z,100.00
2022-08-16T01:42:12.089Z,100.00
2022-08-16T01:44:43.390Z,100.00
2022-08-16T01:47:12.593Z,100.00
2022-08-16T01:50:42.964Z,100.00
2022-08-16T01:52:36.923Z,100.00
2022-08-16T01:55:08.617Z,100.00
2022-08-16T01:57:39.752Z,100.00
2022-08-16T02:00:29.109Z,100.00
2022-08-16T02:02:58.632Z,100.00
2022-08-16T02:05:30.747Z,100.00
2022-08-16T02:08:00.136Z,100.00
2022-08-16T02:10:29.764Z,100.00
2022-08-16T02:13:03.602Z,100.00
2022-08-16T02:15:35.586Z,100.00
2022-08-16T02:18:12.428Z,100.00
2022-08-16T02:20:45.580Z,100.00
2022-08-16T02:23:17.030Z,100.00
2022-08-16T02:25:52.874Z,100.00
2022-08-16T02:28:24.219Z,100.00
2022-08-16T02:30:57.625Z,100.00
2022-08-16T02:33:44.508Z,100.00
2022-08-16T02:36:48.110Z,100.00
2022-08-16T02:39:07.127Z,100.00
2022-08-16T02:41:39.486Z,100.00
2022-08-16T02:44:10.010Z,100.00
2022-08-16T02:46:39.068Z,100.00
2022-08-16T02:49:20.401Z,100.00
2022-08-16T02:51:48.963Z,100.00
2022-08-16T02:54:18.807Z,100.00
2022-08-16T02:56:52.543Z,100.00
2022-08-16T02:59:22.839Z,100.00
2022-08-16T03:01:52.234Z,100.00
2022-08-16T03:04:46.312Z,100.00
2022-08-16T03:07:15.530Z,100.00
2022-08-16T03:09:44.770Z,100.00
2022-08-16T03:12:16.623Z,100.00
2022-08-16T03:14:47.608Z,100.00
2022-08-16T03:17:16.551Z,100.00
2022-08-16T03:19:48.628Z,100.00
2022-08-16T03:22:29.586Z,100.00
2022-08-16T03:25:07.506Z,100.00
2022-08-16T03:27:37.468Z,100.00
2022-08-16T03:30:30.044Z,100.00
2022-08-16T03:32:59.048Z,100.00
2022-08-16T03:35:32.620Z,100.00
2022-08-16T03:38:32.391Z,100.00
2022-08-16T03:40:54.562Z,100.00
2022-08-16T03:43:52.004Z,100.00
2022-08-16T03:46:45.124Z,100.00
2022-08-16T03:49:03.354Z,100.00
2022-08-16T03:51:31.992Z,100.00
2022-08-16T03:54:01.543Z,100.00
2022-08-16T03:56:30.967Z,100.00
2022-08-16T03:59:00.743Z,100.00
2022-08-16T04:01:29.973Z,100.00
2022-08-16T04:03:58.659Z,100.00
2022-08-16T04:06:28.148Z,100.00
2022-08-16T04:08:57.017Z,100.00
2022-08-16T04:11:25.653Z,100.00
2022-08-16T04:14:00.595Z,100.00
2022-08-16T04:16:37.243Z,100.00
2022-08-16T04:19:06.552Z,99.98
2022-08-16T04:21:45.938Z,99.51
2022-08-16T04:24:16.813Z,99.44
2022-08-16T04:26:46.064Z,99.32
2022-08-16T04:29:21.763Z,99.61
2022-08-16T04:31:56.644Z,99.43
2022-08-16T04:34:30.348Z,98.75
2022-08-16T04:37:01.465Z,99.60
2022-08-16T04:39:47.471Z,98.46
2022-08-16T04:42:26.032Z,97.68
2022-08-16T04:45:02.036Z,98.73
2022-08-16T04:47:35.747Z,97.96
2022-08-16T04:50:08.918Z,97.81
2022-08-16T04:52:38.988Z,97.77
2022-08-16T04:55:15.199Z,98.12
2022-08-16T04:57:45.160Z,98.09
2022-08-16T05:00:31.659Z,97.56
2022-08-16T05:03:08.266Z,97.74
2022-08-16T05:05:45.129Z,98.61
2022-08-16T05:08:28.187Z,97.89
2022-08-16T05:11:05.451Z,98.05
2022-08-16T05:13:41.665Z,97.11
2022-08-16T05:16:21.497Z,96.92
2022-08-16T05:18:53.792Z,97.50
2022-08-16T05:21:27.378Z,96.90
2022-08-16T05:24:06.922Z,97.02
2022-08-16T05:26:43.181Z,97.25
2022-08-16T05:29:14.873Z,98.08
2022-08-16T05:31:48.057Z,96.99
2022-08-16T05:34:17.929Z,97.71
2022-08-16T05:36:51.745Z,98.48
2022-08-16T05:39:22.371Z,97.24
2022-08-16T05:41:52.249Z,96.96
2022-08-16T05:44:25.076Z,96.30
2022-08-16T05:46:56.140Z,97.17
2022-08-16T05:49:38.291Z,96.61
2022-08-16T05:52:13.223Z,97.27
2022-08-16T05:54:58.511Z,96.43
2022-08-16T05:57:34.442Z,96.52
2022-08-16T06:00:09.760Z,95.46
2022-08-16T06:02:38.986Z,95.54
2022-08-16T06:05:17.137Z,96.45
2022-08-16T06:07:46.400Z,96.18
2022-08-16T06:10:32.924Z,96.11
2022-08-16T06:13:02.708Z,94.47
2022-08-16T06:15:31.451Z,95.42
2022-08-16T06:18:00.590Z,95.51
2022-08-16T06:20:35.176Z,95.15
2022-08-16T06:23:11.437Z,94.82
2022-08-16T06:25:41.204Z,93.33
2022-08-16T06:28:16.598Z,95.84
2022-08-16T06:30:46.937Z,87.83
2022-08-16T06:33:22.343Z,93.31
2022-08-16T06:35:55.270Z,91.50
2022-08-16T06:38:33.572Z,93.10
2022-08-16T06:41:05.747Z,92.83
2022-08-16T06:43:35.857Z,92.79
2022-08-16T06:46:09.944Z,92.67
2022-08-16T06:48:43.176Z,92.56
2022-08-16T06:51:12.556Z,93.82
2022-08-16T06:53:43.796Z,93.00
2022-08-16T06:56:14.662Z,92.11
2022-08-16T06:58:48.338Z,91.95
2022-08-16T07:01:21.492Z,91.82
2022-08-16T07:03:57.485Z,92.05
2022-08-16T07:06:27.292Z,93.13
2022-08-16T07:08:56.955Z,92.12
2022-08-16T07:11:45.634Z,93.77
2022-08-16T07:14:24.350Z,92.12
2022-08-16T07:16:58.139Z,91.82
2022-08-16T07:20:03.865Z,90.50
2022-08-16T07:22:38.022Z,90.39
2022-08-16T07:25:14.119Z,91.97
2022-08-16T07:27:44.575Z,87.99
2022-08-16T07:30:45.006Z,90.05
2022-08-16T07:33:08.214Z,90.51
2022-08-16T07:35:37.449Z,89.74
2022-08-16T07:38:13.296Z,89.12
2022-08-16T07:41:09.826Z,87.57
2022-08-16T07:43:40.343Z,90.95
2022-08-16T07:46:39.737Z,89.36
2022-08-16T07:49:02.488Z,89.49
2022-08-16T07:51:37.256Z,88.36
2022-08-16T07:54:10.200Z,89.67
2022-08-16T07:56:39.992Z,89.35
2022-08-16T07:59:08.699Z,89.76
2022-08-16T08:01:39.576Z,90.35
2022-08-16T08:04:14.322Z,90.20
2022-08-16T08:06:43.400Z,89.66
2022-08-16T08:09:12.120Z,88.72
2022-08-16T08:11:40.817Z,89.79
2022-08-16T08:14:29.847Z,90.74
2022-08-16T08:17:01.459Z,88.94
2022-08-16T08:19:30.362Z,89.11
2022-08-16T08:22:02.091Z,89.49
2022-08-16T08:24:35.755Z,89.74
2022-08-16T08:27:06.624Z,88.75
2022-08-16T08:29:40.182Z,87.62
2022-08-16T08:32:58.370Z,89.38
2022-08-16T08:35:03.320Z,92.19
2022-08-16T08:37:54.338Z,89.43
2022-08-16T08:40:26.818Z,89.44
2022-08-16T08:43:12.614Z,89.36
2022-08-16T08:45:49.124Z,89.91
2022-08-16T08:48:34.189Z,89.43
2022-08-16T08:51:08.701Z,91.14
2022-08-16T08:53:39.756Z,90.64
2022-08-16T08:56:23.103Z,92.15
2022-08-16T08:58:59.187Z,91.86
2022-08-16T09:01:36.582Z,91.08
2022-08-16T09:04:14.813Z,90.72
2022-08-16T09:06:46.907Z,92.94
2022-08-16T09:09:16.556Z,92.62
2022-08-16T09:11:52.954Z,92.66
2022-08-16T09:14:34.235Z,92.97
2022-08-16T09:17:17.615Z,92.94
2022-08-16T09:19:55.658Z,92.77
2022-08-16T09:22:28.898Z,92.93
2022-08-16T09:25:10.062Z,92.91
2022-08-16T09:27:56.780Z,92.89
2022-08-16T09:30:33.655Z,92.92
2022-08-16T09:33:07.976Z,92.96
2022-08-16T09:35:39.341Z,93.21
2022-08-16T09:38:31.080Z,93.35
2022-08-16T09:41:14.537Z,93.52
2022-08-16T09:43:59.554Z,93.86
2022-08-16T09:46:48.487Z,94.45
2022-08-16T09:49:20.205Z,93.89
2022-08-16T09:51:57.262Z,93.85
2022-08-16T09:54:32.409Z,94.38
2022-08-16T09:57:01.628Z,95.33
2022-08-16T09:59:38.361Z,95.08
2022-08-16T10:02:27.434Z,94.93
2022-08-16T10:04:58.749Z,95.79
2022-08-16T10:07:44.102Z,94.68
2022-08-16T10:10:18.645Z,93.86
2022-08-16T10:13:08.133Z,94.86
2022-08-16T10:15:38.193Z,94.47
2022-08-16T10:19:01.202Z,94.78
2022-08-16T10:21:02.212Z,95.34
2022-08-16T10:23:30.737Z,95.23
2022-08-16T10:27:00.534Z,95.30
2022-08-16T10:28:50.210Z,96.07
2022-08-16T10:31:45.417Z,95.87
2022-08-16T10:34:31.597Z,95.85
2022-08-16T10:36:57.877Z,96.01
2022-08-16T10:39:27.144Z,96.53
2022-08-16T10:42:09.965Z,97.67
2022-08-16T10:44:38.866Z,97.36
2022-08-16T10:47:08.390Z,97.42
2022-08-16T10:49:37.748Z,97.80
2022-08-16T10:52:18.030Z,98.25
2022-08-16T10:57:36.714Z,98.46
2022-08-16T11:00:21.194Z,98.70
2022-08-16T11:02:58.362Z,98.58
2022-08-16T11:05:59.177Z,99.22
2022-08-16T11:08:23.585Z,98.91
2022-08-16T11:11:06.536Z,98.62
2022-08-16T11:19:19.017Z,97.47
2022-08-16T11:24:44.631Z,97.87
2022-08-16T11:27:19.848Z,97.28
2022-08-16T11:29:52.086Z,97.58
2022-08-16T11:32:31.803Z,97.50
2022-08-16T11:35:10.840Z,97.64
2022-08-16T11:40:45.259Z,96.92
2022-08-16T11:43:22.455Z,96.16
2022-08-16T11:45:54.266Z,97.24
2022-08-16T11:48:28.631Z,97.21
2022-08-16T11:50:58.584Z,97.39
2022-08-16T11:53:28.129Z,96.66
2022-08-16T11:56:04.915Z,97.50
2022-08-16T11:58:35.300Z,97.73
2022-08-16T12:01:04.013Z,98.10
2022-08-16T12:03:36.261Z,98.37
2022-08-16T12:06:25.071Z,98.44
2022-08-16T12:09:00.910Z,98.43
2022-08-16T12:11:32.006Z,98.26
2022-08-16T12:14:07.640Z,98.42
2022-08-16T12:16:37.977Z,98.26
2022-08-16T12:19:10.575Z,98.20
2022-08-16T12:21:58.692Z,98.40
2022-08-16T12:24:29.405Z,98.87
2022-08-16T12:27:00.069Z,99.07
2022-08-16T12:29:29.360Z,98.97
2022-08-16T12:32:01.382Z,99.37
2022-08-16T12:34:52.677Z,99.90
2022-08-16T12:37:24.340Z,99.87
2022-08-16T12:39:57.027Z,99.67
2022-08-16T12:42:34.765Z,99.57
2022-08-16T12:45:10.635Z,100.00
2022-08-16T12:48:15.959Z,100.00
2022-08-16T12:50:50.257Z,100.00
2022-08-16T12:53:21.663Z,100.00
2022-08-16T12:55:51.591Z,100.00
2022-08-16T12:58:49.637Z,100.00
2022-08-16T13:01:11.469Z,100.00
2022-08-16T13:03:41.989Z,100.00
2022-08-16T13:06:12.552Z,100.00
2022-08-16T13:08:42.430Z,100.00
2022-08-16T13:11:17.935Z,100.00
2022-08-16T13:13:46.564Z,100.00
2022-08-16T13:16:24.892Z,100.00
2022-08-16T13:18:54.557Z,100.00
2022-08-16T13:21:24.146Z,100.00
2022-08-16T13:23:55.221Z,100.00
2022-08-16T13:26:26.166Z,100.00
2022-08-16T13:28:55.686Z,100.00
2022-08-16T13:31:25.189Z,100.00
2022-08-16T13:33:58.545Z,100.00
2022-08-16T13:39:16.959Z,100.00
2022-08-16T13:41:53.757Z,100.00
2022-08-16T13:44:48.759Z,100.00
2022-08-16T13:47:11.683Z,100.00
2022-08-16T13:49:43.285Z,100.00
2022-08-16T13:52:13.258Z,100.00
2022-08-16T13:54:41.825Z,100.00
2022-08-16T13:57:11.562Z,100.00
2022-08-16T13:59:40.571Z,100.00
2022-08-16T14:02:11.345Z,100.00
2022-08-16T14:04:42.156Z,100.00
2022-08-16T14:07:20.007Z,100.00
2022-08-16T14:09:55.252Z,100.00
2022-08-16T14:12:27.648Z,100.00
2022-08-16T14:14:58.140Z,100.00
2022-08-16T14:17:28.551Z,100.00
2022-08-16T14:19:59.667Z,100.00
2022-08-16T14:22:35.655Z,100.00
2022-08-16T14:25:07.202Z,100.00
2022-08-16T14:27:39.177Z,100.00
2022-08-16T14:30:15.345Z,100.00
2022-08-16T14:32:46.952Z,100.00
2022-08-16T14:35:36.663Z,100.00
2022-08-16T14:38:18.470Z,100.00
2022-08-16T14:40:54.863Z,100.00
2022-08-16T14:43:29.883Z,100.00
2022-08-16T14:45:59.561Z,100.00
2022-08-16T14:48:28.210Z,100.00
2022-08-16T14:50:57.186Z,100.00
2022-08-16T14:53:27.054Z,100.00
2022-08-16T14:55:56.061Z,100.00
2022-08-16T14:58:35.015Z,100.00
2022-08-16T15:01:10.509Z,100.00
2022-08-16T15:03:42.342Z,100.00
2022-08-16T15:06:14.396Z,100.00
2022-08-16T15:08:43.603Z,100.00
2022-08-16T15:11:14.512Z,100.00
2022-08-16T15:13:43.248Z,100.00
2022-08-16T15:16:12.277Z,100.00
2022-08-16T15:18:41.098Z,100.00
2022-08-16T15:21:09.863Z,100.00
2022-08-16T15:23:41.282Z,100.00
2022-08-16T15:26:10.396Z,100.00
2022-08-16T15:28:58.460Z,100.00
2022-08-16T15:31:28.966Z,100.00
2022-08-16T15:33:58.350Z,100.00
2022-08-16T15:36:28.108Z,100.00
2022-08-16T15:39:05.559Z,100.00
2022-08-16T15:41:42.590Z,100.00
2022-08-16T15:44:15.529Z,100.00
2022-08-16T15:46:55.094Z,100.00
2022-08-16T15:49:34.968Z,100.00
2022-08-16T15:52:24.766Z,100.00
2022-08-16T15:55:00.075Z,100.00
2022-08-16T15:57:36.985Z,100.00
2022-08-16T16:00:21.654Z,100.00
2022-08-16T16:02:50.574Z,100.00
2022-08-16T16:05:20.947Z,100.00
2022-08-16T16:07:56.660Z,100.00
2022-08-16T16:10:39.989Z,100.00
2022-08-16T16:13:09.767Z,100.00
2022-08-16T16:15:43.413Z,100.00
2022-08-16T16:18:13.330Z,100.00
2022-08-16T16:20:52.565Z,100.00
2022-08-16T16:23:33.748Z,100.00
2022-08-16T16:26:03.500Z,100.00
2022-08-16T16:29:05.246Z,100.00
2022-08-16T16:31:25.443Z,100.00
2022-08-16T16:33:58.819Z,100.00
2022-08-16T16:36:29.621Z,100.00
2022-08-16T16:38:58.644Z,100.00
2022-08-16T16:41:29.242Z,100.00
2022-08-16T16:44:00.542Z,100.00
2022-08-16T16:46:43.157Z,100.00
2022-08-16T16:49:14.642Z,100.00
2022-08-16T16:51:44.478Z,100.00
2022-08-16T16:54:27.450Z,100.00
2022-08-16T16:56:58.487Z,100.00
2022-08-16T16:59:28.706Z,100.00
2022-08-16T17:02:40.955Z,100.00
2022-08-16T17:04:49.100Z,100.00
2022-08-16T17:07:24.078Z,100.00
2022-08-16T17:09:53.889Z,100.00
2022-08-16T17:12:25.128Z,100.00
2022-08-16T17:15:12.188Z,100.00
2022-08-16T17:18:00.584Z,100.00
2022-08-16T17:20:31.215Z,100.00
2022-08-16T17:23:00.475Z,100.00
2022-08-16T17:25:36.664Z,100.00
2022-08-16T17:28:58.182Z,100.00
2022-08-16T17:30:59.584Z,100.00
2022-08-16T17:33:36.959Z,100.00
2022-08-16T17:36:36.311Z,100.00
2022-08-16T17:39:08.598Z,100.00
2022-08-16T17:41:38.288Z,100.00
2022-08-16T17:44:11.455Z,100.00
2022-08-16T17:46:50.359Z,100.00
2022-08-16T17:49:20.727Z,100.00
2022-08-16T17:51:49.962Z,100.00
2022-08-16T17:54:30.219Z,100.00
2022-08-16T17:57:01.418Z,100.00
2022-08-16T17:59:31.726Z,100.00
2022-08-16T18:02:42.632Z,100.00
2022-08-16T18:04:56.639Z,100.00
2022-08-16T18:07:25.256Z,100.00
2022-08-16T18:09:54.611Z,100.00
2022-08-16T18:12:54.784Z,100.00
2022-08-16T18:15:15.783Z,100.00
2022-08-16T18:17:44.944Z,100.00
2022-08-16T18:20:34.642Z,100.00
2022-08-16T18:23:21.909Z,100.00
2022-08-16T18:25:57.824Z,100.00
2022-08-16T18:28:29.436Z,100.00
2022-08-16T18:31:01.179Z,100.00
2022-08-16T18:33:36.527Z,100.00
2022-08-16T18:36:20.882Z,100.00
2022-08-16T18:38:51.731Z,100.00
2022-08-16T18:41:22.708Z,100.00
2022-08-16T18:44:23.718Z,100.00
2022-08-16T18:46:45.997Z,100.00
2022-08-16T18:49:20.542Z,100.00
2022-08-16T18:51:50.293Z,100.00
2022-08-16T18:54:19.333Z,100.00
2022-08-16T18:56:55.824Z,100.00
2022-08-16T18:59:30.029Z,100.00
2022-08-16T19:02:04.999Z,100.00
2022-08-16T19:04:48.984Z,100.00
2022-08-16T19:07:30.572Z,100.00
2022-08-16T19:10:02.457Z,100.00
2022-08-16T19:12:38.917Z,100.00
2022-08-16T19:15:15.899Z,100.00
2022-08-16T19:17:46.049Z,100.00
2022-08-16T19:20:21.784Z,100.00
2022-08-16T19:23:10.621Z,100.00
2022-08-16T19:25:48.775Z,100.00
2022-08-16T19:28:50.994Z,100.00
2022-08-16T19:31:14.890Z,100.00
2022-08-16T19:33:53.597Z,100.00
2022-08-16T19:36:30.606Z,100.00
2022-08-16T19:39:05.163Z,100.00
2022-08-16T19:41:36.441Z,100.00
2022-08-16T19:44:06.699Z,100.00
2022-08-16T19:46:36.065Z,100.00
2022-08-16T19:49:06.723Z,100.00
2022-08-16T19:51:35.346Z,100.00
2022-08-16T19:54:06.559Z,100.00
2022-08-16T19:56:35.406Z,100.00
2022-08-16T19:59:21.983Z,100.00
2022-08-16T20:01:53.218Z,100.00
2022-08-16T20:04:23.867Z,100.00
2022-08-16T20:06:54.200Z,100.00
2022-08-16T20:09:24.306Z,100.00
2022-08-16T20:11:54.316Z,100.00
2022-08-16T20:14:25.401Z,100.00
2022-08-16T20:16:57.512Z,100.00
2022-08-16T20:19:28.299Z,100.00
2022-08-16T20:21:59.177Z,100.00
2022-08-16T20:24:34.554Z,100.00
2022-08-16T20:27:09.850Z,100.00
2022-08-16T20:29:41.131Z,100.00
2022-08-16T20:32:14.427Z,100.00
2022-08-16T20:34:44.617Z,100.00
2022-08-16T20:37:13.913Z,100.00
2022-08-16T20:39:45.221Z,100.00
2022-08-16T20:42:16.397Z,100.00
2022-08-16T20:44:45.994Z,100.00
2022-08-16T20:47:14.942Z,100.00
2022-08-16T20:49:43.660Z,100.00
2022-08-16T20:52:20.665Z,100.00
2022-08-16T20:54:50.333Z,100.00
2022-08-16T20:57:19.660Z,100.00
2022-08-16T20:59:50.322Z,100.00
2022-08-16T21:02:26.608Z,100.00
2022-08-16T21:04:56.131Z,100.00
2022-08-16T21:07:24.939Z,100.00
2022-08-16T21:09:54.106Z,100.00
2022-08-16T21:12:22.844Z,100.00
2022-08-16T21:14:54.360Z,100.00
2022-08-16T21:17:23.038Z,100.00
2022-08-16T21:19:51.606Z,100.00
2022-08-16T21:22:24.862Z,100.00
2022-08-16T21:24:54.157Z,100.00
2022-08-16T21:27:24.302Z,100.00
2022-08-16T21:29:55.787Z,100.00
2022-08-16T21:32:35.245Z,100.00
2022-08-16T21:35:13.574Z,100.00
2022-08-16T21:37:43.162Z,100.00
2022-08-16T21:40:33.703Z,100.00
2022-08-16T21:43:12.463Z,100.00
2022-08-16T21:45:42.536Z,100.00
2022-08-16T21:48:11.624Z,100.00
2022-08-16T21:50:41.800Z,100.00
2022-08-16T21:53:18.126Z,100.00
2022-08-16T21:55:49.073Z,100.00
2022-08-16T21:58:17.696Z,100.00
2022-08-16T22:00:46.789Z,100.00
2022-08-16T22:03:15.557Z,100.00
2022-08-16T22:05:46.702Z,100.00
2022-08-16T22:08:48.028Z,100.00
2022-08-16T22:11:20.999Z,100.00
2022-08-16T22:13:57.704Z,100.00
2022-08-16T22:16:30.431Z,100.00
2022-08-16T22:18:59.418Z,100.00
2022-08-16T22:21:28.159Z,100.00
2022-08-16T22:23:58.781Z,100.00
2022-08-16T22:26:32.914Z,100.00
2022-08-16T22:29:04.472Z,100.00
2022-08-16T22:31:34.003Z,100.00
2022-08-16T22:34:03.262Z,100.00
2022-08-16T22:36:34.048Z,100.00
2022-08-16T22:39:05.306Z,100.00
2022-08-16T22:41:35.984Z,100.00
2022-08-16T22:44:06.821Z,100.00
2022-08-16T22:46:37.547Z,100.00
2022-08-16T22:49:09.675Z,100.00
2022-08-16T22:51:39.870Z,100.00
2022-08-16T22:54:41.433Z,100.00
2022-08-16T22:56:58.650Z,100.00
2022-08-16T22:59:27.308Z,100.00
2022-08-16T23:01:56.163Z,100.00
2022-08-16T23:04:25.972Z,100.00
2022-08-16T23:06:54.850Z,100.00
2022-08-16T23:09:23.618Z,100.00
2022-08-16T23:11:52.620Z,100.00
2022-08-16T23:14:21.235Z,100.00
2022-08-16T23:16:49.841Z,100.00
2022-08-16T23:19:18.670Z,100.00
2022-08-16T23:21:48.473Z,100.00
2022-08-16T23:24:21.302Z,100.00
2022-08-16T23:26:50.375Z,100.00
2022-08-16T23:29:26.265Z,100.00
2022-08-16T23:32:10.379Z,100.00
2022-08-16T23:34:39.010Z,100.00
2022-08-16T23:37:07.646Z,100.00
2022-08-16T23:39:36.924Z,100.00
2022-08-16T23:42:52.204Z,100.00
2022-08-16T23:45:07.509Z,100.00
2022-08-16T23:47:36.098Z,100.00
2022-08-16T23:50:05.078Z,100.00
2022-08-16T23:52:45.697Z,100.00
2022-08-16T23:55:23.123Z,100.00
2022-08-16T23:57:52.281Z,100.00
